sensor_id;sensor_type;location;lat;lon;timestamp;P1;durP1;ratioP1;P2;durP2;ratioP2
10731;SDS011;5417;42.686;23.244;2023-06-22T00:03:57;17.40;;;15.70;;
10731;SDS011;5417;42.686;23.244;2023-06-22T00:07:02;16.37;;;14.77;;
10731;SDS011;5417;42.686;23.244;2023-06-22T00:09:16;16.13;;;14.50;;
10731;SDS011;5417;42.686;23.244;2023-06-22T00:11:43;16.13;;;14.43;;
10731;SDS011;5417;42.686;23.244;2023-06-22T00:27:36;18.63;;;16.70;;
10731;SDS011;5417;42.686;23.244;2023-06-22T00:30:04;19.23;;;17.23;;
10731;SDS011;5417;42.686;23.244;2023-06-22T00:33:37;18.03;;;16.37;;
10731;SDS011;5417;42.686;23.244;2023-06-22T00:52:27;16.43;;;14.83;;
10731;SDS011;5417;42.686;23.244;2023-06-22T01:14:37;15.40;;;14.00;;
10731;SDS011;5417;42.686;23.244;2023-06-22T01:17:22;16.07;;;14.67;;
10731;SDS011;5417;42.686;23.244;2023-06-22T01:19:54;15.77;;;14.27;;
10731;SDS011;5417;42.686;23.244;2023-06-22T01:22:24;15.20;;;13.70;;
10731;SDS011;5417;42.686;23.244;2023-06-22T01:25:59;15.57;;;14.17;;
10731;SDS011;5417;42.686;23.244;2023-06-22T01:31:44;15.13;;;13.83;;
10731;SDS011;5417;42.686;23.244;2023-06-22T01:35:16;14.57;;;13.27;;
10731;SDS011;5417;42.686;23.244;2023-06-22T01:37:22;13.87;;;12.63;;
10731;SDS011;5417;42.686;23.244;2023-06-22T01:39:49;14.30;;;12.87;;
10731;SDS011;5417;42.686;23.244;2023-06-22T01:42:17;13.83;;;12.67;;
10731;SDS011;5417;42.686;23.244;2023-06-22T01:44:43;14.13;;;12.90;;
10731;SDS011;5417;42.686;23.244;2023-06-22T01:47:12;14.23;;;12.13;;
10731;SDS011;5417;42.686;23.244;2023-06-22T01:56:52;15.17;;;13.67;;
10731;SDS011;5417;42.686;23.244;2023-06-22T02:00:11;14.60;;;13.20;;
10731;SDS011;5417;42.686;23.244;2023-06-22T02:02:40;13.70;;;12.40;;
10731;SDS011;5417;42.686;23.244;2023-06-22T02:05:49;16.00;;;14.37;;
10731;SDS011;5417;42.686;23.244;2023-06-22T02:12:24;14.73;;;13.33;;
10731;SDS011;5417;42.686;23.244;2023-06-22T02:15:28;14.70;;;13.23;;
10731;SDS011;5417;42.686;23.244;2023-06-22T02:23:20;14.23;;;13.03;;
10731;SDS011;5417;42.686;23.244;2023-06-22T02:26:18;12.73;;;11.50;;
10731;SDS011;5417;42.686;23.244;2023-06-22T02:35:29;16.53;;;12.57;;
10731;SDS011;5417;42.686;23.244;2023-06-22T02:37:48;16.13;;;13.23;;
10731;SDS011;5417;42.686;23.244;2023-06-22T03:02:06;13.93;;;12.67;;
10731;SDS011;5417;42.686;23.244;2023-06-22T03:05:51;15.70;;;13.87;;
10731;SDS011;5417;42.686;23.244;2023-06-22T03:10:03;14.87;;;13.37;;
10731;SDS011;5417;42.686;23.244;2023-06-22T03:17:35;14.07;;;12.80;;
10731;SDS011;5417;42.686;23.244;2023-06-22T03:26:57;13.27;;;12.17;;
10731;SDS011;5417;42.686;23.244;2023-06-22T03:29:27;13.43;;;12.27;;
10731;SDS011;5417;42.686;23.244;2023-06-22T03:32:57;14.50;;;13.10;;
10731;SDS011;5417;42.686;23.244;2023-06-22T03:35:10;14.30;;;13.10;;
10731;SDS011;5417;42.686;23.244;2023-06-22T03:38:41;14.93;;;12.17;;
10731;SDS011;5417;42.686;23.244;2023-06-22T03:40:50;11.97;;;10.87;;
10731;SDS011;5417;42.686;23.244;2023-06-22T03:52:37;12.67;;;10.80;;
10731;SDS011;5417;42.686;23.244;2023-06-22T03:55:51;10.43;;;9.73;;
10731;SDS011;5417;42.686;23.244;2023-06-22T04:04:51;12.20;;;11.17;;
10731;SDS011;5417;42.686;23.244;2023-06-22T04:08:20;11.87;;;10.80;;
10731;SDS011;5417;42.686;23.244;2023-06-22T04:10:45;11.40;;;10.27;;
10731;SDS011;5417;42.686;23.244;2023-06-22T04:47:55;13.70;;;12.40;;
10731;SDS011;5417;42.686;23.244;2023-06-22T04:50:52;14.40;;;12.80;;
10731;SDS011;5417;42.686;23.244;2023-06-22T04:53:15;12.10;;;11.00;;
10731;SDS011;5417;42.686;23.244;2023-06-22T04:55:41;12.13;;;10.83;;
10731;SDS011;5417;42.686;23.244;2023-06-22T04:59:15;11.47;;;10.23;;
10731;SDS011;5417;42.686;23.244;2023-06-22T05:01:09;13.40;;;11.03;;
10731;SDS011;5417;42.686;23.244;2023-06-22T05:03:37;17.53;;;10.90;;
10731;SDS011;5417;42.686;23.244;2023-06-22T05:09:33;13.20;;;11.17;;
10731;SDS011;5417;42.686;23.244;2023-06-22T05:12:00;15.03;;;10.40;;
10731;SDS011;5417;42.686;23.244;2023-06-22T05:20:31;11.67;;;10.60;;
10731;SDS011;5417;42.686;23.244;2023-06-22T05:26:11;11.77;;;10.87;;
10731;SDS011;5417;42.686;23.244;2023-06-22T05:28:38;12.17;;;11.07;;
10731;SDS011;5417;42.686;23.244;2023-06-22T05:31:04;12.23;;;11.13;;
10731;SDS011;5417;42.686;23.244;2023-06-22T05:33:36;11.97;;;10.80;;
10731;SDS011;5417;42.686;23.244;2023-06-22T05:36:19;11.70;;;10.63;;
10731;SDS011;5417;42.686;23.244;2023-06-22T05:38:46;12.33;;;11.23;;
10731;SDS011;5417;42.686;23.244;2023-06-22T05:42:16;12.57;;;11.47;;
10731;SDS011;5417;42.686;23.244;2023-06-22T05:44:26;12.83;;;11.47;;
10731;SDS011;5417;42.686;23.244;2023-06-22T05:47:55;12.10;;;10.93;;
10731;SDS011;5417;42.686;23.244;2023-06-22T06:17:46;11.35;;;10.32;;
10731;SDS011;5417;42.686;23.244;2023-06-22T06:20:13;12.02;;;10.82;;
10731;SDS011;5417;42.686;23.244;2023-06-22T06:22:40;12.18;;;11.00;;
10731;SDS011;5417;42.686;23.244;2023-06-22T06:25:08;11.98;;;10.88;;
10731;SDS011;5417;42.686;23.244;2023-06-22T06:27:35;12.60;;;11.50;;
10731;SDS011;5417;42.686;23.244;2023-06-22T06:30:02;12.75;;;11.10;;
10731;SDS011;5417;42.686;23.244;2023-06-22T06:32:30;11.65;;;10.65;;
10731;SDS011;5417;42.686;23.244;2023-06-22T06:34:58;12.93;;;11.70;;
10731;SDS011;5417;42.686;23.244;2023-06-22T06:37:25;13.32;;;12.05;;
10731;SDS011;5417;42.686;23.244;2023-06-22T06:39:53;13.73;;;12.30;;
10731;SDS011;5417;42.686;23.244;2023-06-22T06:42:19;13.00;;;11.98;;
10731;SDS011;5417;42.686;23.244;2023-06-22T06:44:48;13.40;;;12.30;;
10731;SDS011;5417;42.686;23.244;2023-06-22T06:47:15;11.90;;;10.95;;
10731;SDS011;5417;42.686;23.244;2023-06-22T06:49:42;12.85;;;11.70;;
10731;SDS011;5417;42.686;23.244;2023-06-22T06:54:55;13.40;;;12.32;;
10731;SDS011;5417;42.686;23.244;2023-06-22T06:57:22;15.60;;;14.13;;
10731;SDS011;5417;42.686;23.244;2023-06-22T06:59:49;14.73;;;13.43;;
10731;SDS011;5417;42.686;23.244;2023-06-22T07:02:16;18.20;;;16.52;;
10731;SDS011;5417;42.686;23.244;2023-06-22T07:04:43;18.05;;;16.40;;
10731;SDS011;5417;42.686;23.244;2023-06-22T07:07:09;17.23;;;15.43;;
10731;SDS011;5417;42.686;23.244;2023-06-22T07:09:37;16.75;;;15.02;;
10731;SDS011;5417;42.686;23.244;2023-06-22T07:12:05;14.73;;;13.52;;
10731;SDS011;5417;42.686;23.244;2023-06-22T07:14:32;15.00;;;13.60;;
10731;SDS011;5417;42.686;23.244;2023-06-22T07:16:59;15.88;;;14.32;;
10731;SDS011;5417;42.686;23.244;2023-06-22T07:19:26;13.63;;;12.45;;
10731;SDS011;5417;42.686;23.244;2023-06-22T07:22:46;12.38;;;11.27;;
10731;SDS011;5417;42.686;23.244;2023-06-22T07:25:01;11.77;;;10.70;;
10731;SDS011;5417;42.686;23.244;2023-06-22T07:27:34;13.27;;;12.15;;
10731;SDS011;5417;42.686;23.244;2023-06-22T07:30:03;12.75;;;11.43;;
10731;SDS011;5417;42.686;23.244;2023-06-22T07:32:30;12.32;;;11.30;;
10731;SDS011;5417;42.686;23.244;2023-06-22T07:34:57;13.70;;;12.25;;
10731;SDS011;5417;42.686;23.244;2023-06-22T07:37:24;13.40;;;12.43;;
10731;SDS011;5417;42.686;23.244;2023-06-22T07:40:24;14.18;;;12.88;;
10731;SDS011;5417;42.686;23.244;2023-06-22T07:43:56;14.10;;;12.88;;
10731;SDS011;5417;42.686;23.244;2023-06-22T07:46:04;14.20;;;13.00;;
10731;SDS011;5417;42.686;23.244;2023-06-22T07:48:31;13.52;;;12.45;;
10731;SDS011;5417;42.686;23.244;2023-06-22T07:50:58;14.02;;;12.93;;
10731;SDS011;5417;42.686;23.244;2023-06-22T07:53:25;13.88;;;12.77;;
10731;SDS011;5417;42.686;23.244;2023-06-22T07:55:54;13.88;;;12.68;;
10731;SDS011;5417;42.686;23.244;2023-06-22T07:58:21;13.48;;;12.30;;
10731;SDS011;5417;42.686;23.244;2023-06-22T08:00:48;13.63;;;12.43;;
10731;SDS011;5417;42.686;23.244;2023-06-22T08:03:15;14.07;;;12.75;;
10731;SDS011;5417;42.686;23.244;2023-06-22T08:05:42;13.65;;;12.45;;
10731;SDS011;5417;42.686;23.244;2023-06-22T08:08:09;14.70;;;13.50;;
10731;SDS011;5417;42.686;23.244;2023-06-22T08:11:29;13.30;;;12.40;;
10731;SDS011;5417;42.686;23.244;2023-06-22T08:13:41;14.50;;;13.15;;
10731;SDS011;5417;42.686;23.244;2023-06-22T08:17:11;13.48;;;12.50;;
10731;SDS011;5417;42.686;23.244;2023-06-22T08:19:22;13.48;;;12.38;;
10731;SDS011;5417;42.686;23.244;2023-06-22T08:21:49;13.25;;;12.10;;
10731;SDS011;5417;42.686;23.244;2023-06-22T08:24:16;13.10;;;12.20;;
10731;SDS011;5417;42.686;23.244;2023-06-22T08:26:44;13.77;;;12.48;;
10731;SDS011;5417;42.686;23.244;2023-06-22T08:29:11;13.52;;;12.43;;
10731;SDS011;5417;42.686;23.244;2023-06-22T08:31:39;12.68;;;11.77;;
10731;SDS011;5417;42.686;23.244;2023-06-22T08:34:06;12.98;;;11.88;;
10731;SDS011;5417;42.686;23.244;2023-06-22T08:36:33;13.23;;;12.23;;
10731;SDS011;5417;42.686;23.244;2023-06-22T08:39:40;12.60;;;11.50;;
10731;SDS011;5417;42.686;23.244;2023-06-22T08:42:09;13.10;;;12.18;;
10731;SDS011;5417;42.686;23.244;2023-06-22T08:44:38;13.93;;;12.63;;
10731;SDS011;5417;42.686;23.244;2023-06-22T08:47:05;12.82;;;11.77;;
10731;SDS011;5417;42.686;23.244;2023-06-22T08:49:32;13.18;;;11.88;;
10731;SDS011;5417;42.686;23.244;2023-06-22T08:51:59;13.95;;;12.02;;
10731;SDS011;5417;42.686;23.244;2023-06-22T08:54:26;13.05;;;12.10;;
10731;SDS011;5417;42.686;23.244;2023-06-22T09:06:22;11.60;;;10.68;;
10731;SDS011;5417;42.686;23.244;2023-06-22T09:08:49;10.95;;;9.95;;
10731;SDS011;5417;42.686;23.244;2023-06-22T09:11:16;9.63;;;8.82;;
10731;SDS011;5417;42.686;23.244;2023-06-22T09:13:43;11.23;;;10.20;;
10731;SDS011;5417;42.686;23.244;2023-06-22T09:16:49;9.82;;;9.13;;
10731;SDS011;5417;42.686;23.244;2023-06-22T09:19:05;10.70;;;9.82;;
10731;SDS011;5417;42.686;23.244;2023-06-22T09:21:32;10.60;;;9.70;;
10731;SDS011;5417;42.686;23.244;2023-06-22T09:24:01;11.35;;;10.32;;
10731;SDS011;5417;42.686;23.244;2023-06-22T09:26:28;10.45;;;9.52;;
10731;SDS011;5417;42.686;23.244;2023-06-22T09:29:42;11.23;;;9.77;;
10731;SDS011;5417;42.686;23.244;2023-06-22T09:31:47;9.93;;;9.23;;
10731;SDS011;5417;42.686;23.244;2023-06-22T09:37:03;10.43;;;9.73;;
10731;SDS011;5417;42.686;23.244;2023-06-22T09:39:31;9.32;;;8.63;;
10731;SDS011;5417;42.686;23.244;2023-06-22T09:41:58;10.00;;;9.35;;
10731;SDS011;5417;42.686;23.244;2023-06-22T09:44:25;10.70;;;9.65;;
10731;SDS011;5417;42.686;23.244;2023-06-22T09:46:52;10.95;;;10.10;;
10731;SDS011;5417;42.686;23.244;2023-06-22T09:49:20;12.40;;;11.18;;
10731;SDS011;5417;42.686;23.244;2023-06-22T09:51:51;9.40;;;8.80;;
10731;SDS011;5417;42.686;23.244;2023-06-22T09:54:18;10.38;;;9.60;;
10731;SDS011;5417;42.686;23.244;2023-06-22T09:56:45;9.38;;;8.85;;
10731;SDS011;5417;42.686;23.244;2023-06-22T10:02:37;10.55;;;9.82;;
10731;SDS011;5417;42.686;23.244;2023-06-22T10:05:05;10.20;;;9.20;;
10731;SDS011;5417;42.686;23.244;2023-06-22T10:10:16;9.93;;;9.05;;
10731;SDS011;5417;42.686;23.244;2023-06-22T10:12:45;9.90;;;9.40;;
10731;SDS011;5417;42.686;23.244;2023-06-22T10:15:12;9.10;;;8.50;;
10731;SDS011;5417;42.686;23.244;2023-06-22T10:17:40;9.40;;;8.82;;
10731;SDS011;5417;42.686;23.244;2023-06-22T10:20:07;10.63;;;9.93;;
10731;SDS011;5417;42.686;23.244;2023-06-22T10:22:37;9.35;;;8.65;;
10731;SDS011;5417;42.686;23.244;2023-06-22T10:25:11;10.38;;;9.68;;
10731;SDS011;5417;42.686;23.244;2023-06-22T10:27:39;10.95;;;9.93;;
10731;SDS011;5417;42.686;23.244;2023-06-22T10:30:07;11.63;;;10.63;;
10731;SDS011;5417;42.686;23.244;2023-06-22T10:32:34;10.38;;;9.57;;
10731;SDS011;5417;42.686;23.244;2023-06-22T10:35:02;10.43;;;9.60;;
10731;SDS011;5417;42.686;23.244;2023-06-22T10:37:29;9.57;;;8.82;;
10731;SDS011;5417;42.686;23.244;2023-06-22T10:39:56;10.13;;;9.35;;
10731;SDS011;5417;42.686;23.244;2023-06-22T10:42:24;9.38;;;8.88;;
10731;SDS011;5417;42.686;23.244;2023-06-22T10:45:54;11.20;;;10.27;;
10731;SDS011;5417;42.686;23.244;2023-06-22T10:48:05;11.60;;;10.45;;
10731;SDS011;5417;42.686;23.244;2023-06-22T10:50:32;10.20;;;9.55;;
10731;SDS011;5417;42.686;23.244;2023-06-22T10:52:59;13.57;;;12.48;;
10731;SDS011;5417;42.686;23.244;2023-06-22T10:55:26;11.13;;;10.40;;
10731;SDS011;5417;42.686;23.244;2023-06-22T10:57:54;11.05;;;10.07;;
10731;SDS011;5417;42.686;23.244;2023-06-22T11:00:22;9.60;;;8.82;;
10731;SDS011;5417;42.686;23.244;2023-06-22T11:02:52;9.43;;;8.82;;
10731;SDS011;5417;42.686;23.244;2023-06-22T11:05:19;11.07;;;10.32;;
10731;SDS011;5417;42.686;23.244;2023-06-22T11:07:46;11.18;;;10.07;;
10731;SDS011;5417;42.686;23.244;2023-06-22T11:13:41;10.30;;;9.60;;
10731;SDS011;5417;42.686;23.244;2023-06-22T11:16:08;9.65;;;8.88;;
10731;SDS011;5417;42.686;23.244;2023-06-22T11:18:35;10.93;;;9.90;;
10731;SDS011;5417;42.686;23.244;2023-06-22T11:21:02;11.25;;;10.25;;
10731;SDS011;5417;42.686;23.244;2023-06-22T11:24:32;20.58;;;16.95;;
10731;SDS011;5417;42.686;23.244;2023-06-22T11:26:43;11.27;;;10.27;;
10731;SDS011;5417;42.686;23.244;2023-06-22T11:29:11;10.05;;;9.30;;
10731;SDS011;5417;42.686;23.244;2023-06-22T11:31:38;10.55;;;9.70;;
10731;SDS011;5417;42.686;23.244;2023-06-22T11:34:07;10.23;;;9.23;;
10731;SDS011;5417;42.686;23.244;2023-06-22T11:36:34;12.25;;;9.48;;
10731;SDS011;5417;42.686;23.244;2023-06-22T11:39:02;17.30;;;11.23;;
10731;SDS011;5417;42.686;23.244;2023-06-22T11:41:30;11.48;;;10.38;;
10731;SDS011;5417;42.686;23.244;2023-06-22T11:43:57;12.63;;;10.10;;
10731;SDS011;5417;42.686;23.244;2023-06-22T11:46:25;10.82;;;9.75;;
10731;SDS011;5417;42.686;23.244;2023-06-22T11:56:46;11.73;;;10.85;;
10731;SDS011;5417;42.686;23.244;2023-06-22T12:05:49;12.60;;;11.70;;
10731;SDS011;5417;42.686;23.244;2023-06-22T12:08:16;13.25;;;11.73;;
10731;SDS011;5417;42.686;23.244;2023-06-22T12:10:43;12.68;;;11.55;;
10731;SDS011;5417;42.686;23.244;2023-06-22T12:13:10;14.10;;;12.88;;
10731;SDS011;5417;42.686;23.244;2023-06-22T12:15:38;15.07;;;13.77;;
10731;SDS011;5417;42.686;23.244;2023-06-22T12:18:04;15.35;;;13.50;;
10731;SDS011;5417;42.686;23.244;2023-06-22T12:20:33;13.63;;;12.38;;
10731;SDS011;5417;42.686;23.244;2023-06-22T12:23:01;11.52;;;10.65;;
10731;SDS011;5417;42.686;23.244;2023-06-22T12:25:28;12.30;;;11.30;;
10731;SDS011;5417;42.686;23.244;2023-06-22T12:27:55;21.05;;;19.30;;
10731;SDS011;5417;42.686;23.244;2023-06-22T12:30:22;16.77;;;13.45;;
10731;SDS011;5417;42.686;23.244;2023-06-22T12:32:49;15.52;;;12.10;;
10731;SDS011;5417;42.686;23.244;2023-06-22T12:35:27;13.03;;;9.53;;
10731;SDS011;5417;42.686;23.244;2023-06-22T12:37:57;14.20;;;8.50;;
10731;SDS011;5417;42.686;23.244;2023-06-22T12:40:25;12.67;;;7.80;;
10731;SDS011;5417;42.686;23.244;2023-06-22T12:43:04;9.47;;;7.60;;
10731;SDS011;5417;42.686;23.244;2023-06-22T12:46:56;10.80;;;7.80;;
10731;SDS011;5417;42.686;23.244;2023-06-22T12:48:50;11.17;;;8.50;;
10731;SDS011;5417;42.686;23.244;2023-06-22T12:51:20;10.40;;;7.77;;
10731;SDS011;5417;42.686;23.244;2023-06-22T12:53:49;7.80;;;7.00;;
10731;SDS011;5417;42.686;23.244;2023-06-22T12:56:19;7.83;;;6.97;;
10731;SDS011;5417;42.686;23.244;2023-06-22T12:58:48;8.33;;;7.53;;
10731;SDS011;5417;42.686;23.244;2023-06-22T13:01:17;8.93;;;7.90;;
10731;SDS011;5417;42.686;23.244;2023-06-22T13:03:45;8.50;;;7.73;;
10731;SDS011;5417;42.686;23.244;2023-06-22T13:06:12;8.27;;;7.10;;
10731;SDS011;5417;42.686;23.244;2023-06-22T13:08:41;7.97;;;7.37;;
10731;SDS011;5417;42.686;23.244;2023-06-22T13:11:08;8.43;;;7.60;;
10731;SDS011;5417;42.686;23.244;2023-06-22T13:13:38;10.70;;;8.70;;
10731;SDS011;5417;42.686;23.244;2023-06-22T13:16:05;9.47;;;8.67;;
10731;SDS011;5417;42.686;23.244;2023-06-22T13:18:32;11.83;;;9.57;;
10731;SDS011;5417;42.686;23.244;2023-06-22T13:21:01;9.50;;;8.60;;
10731;SDS011;5417;42.686;23.244;2023-06-22T13:23:28;9.33;;;8.47;;
10731;SDS011;5417;42.686;23.244;2023-06-22T13:25:59;9.57;;;8.67;;
10731;SDS011;5417;42.686;23.244;2023-06-22T13:28:26;10.20;;;8.17;;
10731;SDS011;5417;42.686;23.244;2023-06-22T13:30:56;14.43;;;13.00;;
10731;SDS011;5417;42.686;23.244;2023-06-22T13:33:24;11.00;;;9.90;;
10731;SDS011;5417;42.686;23.244;2023-06-22T13:35:51;26.17;;;10.77;;
10731;SDS011;5417;42.686;23.244;2023-06-22T13:38:18;8.97;;;8.17;;
10731;SDS011;5417;42.686;23.244;2023-06-22T13:40:48;28.63;;;13.07;;
10731;SDS011;5417;42.686;23.244;2023-06-22T13:43:15;11.00;;;9.23;;
10731;SDS011;5417;42.686;23.244;2023-06-22T13:45:49;10.47;;;8.87;;
10731;SDS011;5417;42.686;23.244;2023-06-22T13:48:17;10.77;;;9.83;;
10731;SDS011;5417;42.686;23.244;2023-06-22T13:50:48;10.37;;;9.57;;
10731;SDS011;5417;42.686;23.244;2023-06-22T13:53:16;10.20;;;9.33;;
10731;SDS011;5417;42.686;23.244;2023-06-22T13:55:43;10.97;;;10.00;;
10731;SDS011;5417;42.686;23.244;2023-06-22T14:08:17;10.43;;;9.63;;
10731;SDS011;5417;42.686;23.244;2023-06-22T14:10:45;10.77;;;9.97;;
10731;SDS011;5417;42.686;23.244;2023-06-22T14:13:14;11.47;;;10.43;;
10731;SDS011;5417;42.686;23.244;2023-06-22T14:15:41;10.17;;;9.27;;
10731;SDS011;5417;42.686;23.244;2023-06-22T14:18:08;12.07;;;10.63;;
10731;SDS011;5417;42.686;23.244;2023-06-22T14:20:39;11.83;;;10.73;;
10731;SDS011;5417;42.686;23.244;2023-06-22T14:23:06;12.00;;;11.00;;
10731;SDS011;5417;42.686;23.244;2023-06-22T14:25:41;12.00;;;11.10;;
10731;SDS011;5417;42.686;23.244;2023-06-22T14:28:08;12.37;;;11.37;;
10731;SDS011;5417;42.686;23.244;2023-06-22T14:30:35;12.33;;;11.30;;
10731;SDS011;5417;42.686;23.244;2023-06-22T14:33:02;12.50;;;11.43;;
10731;SDS011;5417;42.686;23.244;2023-06-22T14:35:33;11.23;;;10.33;;
10731;SDS011;5417;42.686;23.244;2023-06-22T14:38:04;10.90;;;10.10;;
10731;SDS011;5417;42.686;23.244;2023-06-22T14:40:31;12.27;;;11.10;;
10731;SDS011;5417;42.686;23.244;2023-06-22T14:42:59;12.10;;;10.90;;
10731;SDS011;5417;42.686;23.244;2023-06-22T14:45:26;12.37;;;11.27;;
10731;SDS011;5417;42.686;23.244;2023-06-22T14:47:53;12.17;;;10.90;;
10731;SDS011;5417;42.686;23.244;2023-06-22T14:50:20;14.10;;;12.27;;
10731;SDS011;5417;42.686;23.244;2023-06-22T14:52:47;13.63;;;12.40;;
10731;SDS011;5417;42.686;23.244;2023-06-22T14:55:15;12.83;;;11.53;;
10731;SDS011;5417;42.686;23.244;2023-06-22T14:57:42;12.93;;;11.73;;
10731;SDS011;5417;42.686;23.244;2023-06-22T15:02:52;10.73;;;9.77;;
10731;SDS011;5417;42.686;23.244;2023-06-22T15:05:19;11.53;;;10.57;;
10731;SDS011;5417;42.686;23.244;2023-06-22T15:07:47;20.10;;;18.20;;
10731;SDS011;5417;42.686;23.244;2023-06-22T15:10:14;15.80;;;14.30;;
10731;SDS011;5417;42.686;23.244;2023-06-22T15:12:41;13.90;;;12.50;;
10731;SDS011;5417;42.686;23.244;2023-06-22T15:15:16;13.70;;;12.43;;
10731;SDS011;5417;42.686;23.244;2023-06-22T15:17:45;13.70;;;12.40;;
10731;SDS011;5417;42.686;23.244;2023-06-22T15:21:15;15.83;;;13.00;;
10731;SDS011;5417;42.686;23.244;2023-06-22T15:23:16;15.03;;;13.43;;
10731;SDS011;5417;42.686;23.244;2023-06-22T15:27:04;15.30;;;12.63;;
10731;SDS011;5417;42.686;23.244;2023-06-22T15:29:57;13.70;;;12.40;;
10731;SDS011;5417;42.686;23.244;2023-06-22T16:01:32;12.03;;;11.03;;
10731;SDS011;5417;42.686;23.244;2023-06-22T16:06:45;11.67;;;10.57;;
10731;SDS011;5417;42.686;23.244;2023-06-22T16:12:01;11.73;;;10.83;;
10731;SDS011;5417;42.686;23.244;2023-06-22T16:29:45;12.37;;;11.27;;
10731;SDS011;5417;42.686;23.244;2023-06-22T16:35:47;13.03;;;11.73;;
10731;SDS011;5417;42.686;23.244;2023-06-22T16:38:50;15.37;;;11.73;;
10731;SDS011;5417;42.686;23.244;2023-06-22T16:41:40;13.70;;;12.40;;
10731;SDS011;5417;42.686;23.244;2023-06-22T16:50:51;14.33;;;13.13;;
10731;SDS011;5417;42.686;23.244;2023-06-22T16:53:22;15.07;;;13.53;;
10731;SDS011;5417;42.686;23.244;2023-06-22T17:05:37;18.40;;;16.50;;
10731;SDS011;5417;42.686;23.244;2023-06-22T17:18:05;16.47;;;14.87;;
10731;SDS011;5417;42.686;23.244;2023-06-22T17:20:33;16.77;;;14.47;;
10731;SDS011;5417;42.686;23.244;2023-06-22T17:28:26;17.83;;;16.33;;
10731;SDS011;5417;42.686;23.244;2023-06-22T17:30:35;14.47;;;12.97;;
10731;SDS011;5417;42.686;23.244;2023-06-22T17:39:33;13.67;;;12.37;;
10731;SDS011;5417;42.686;23.244;2023-06-22T17:42:00;13.93;;;12.53;;
10731;SDS011;5417;42.686;23.244;2023-06-22T17:44:28;15.13;;;12.80;;
10731;SDS011;5417;42.686;23.244;2023-06-22T17:46:56;14.50;;;12.27;;
10731;SDS011;5417;42.686;23.244;2023-06-22T17:49:29;15.20;;;13.43;;
10731;SDS011;5417;42.686;23.244;2023-06-22T17:51:57;39.50;;;29.07;;
10731;SDS011;5417;42.686;23.244;2023-06-22T17:55:00;16.97;;;15.17;;
10731;SDS011;5417;42.686;23.244;2023-06-22T17:57:30;17.87;;;16.13;;
10731;SDS011;5417;42.686;23.244;2023-06-22T18:01:08;15.83;;;14.33;;
10731;SDS011;5417;42.686;23.244;2023-06-22T18:03:19;16.13;;;14.43;;
10731;SDS011;5417;42.686;23.244;2023-06-22T18:12:36;16.90;;;15.03;;
10731;SDS011;5417;42.686;23.244;2023-06-22T18:21:33;16.23;;;14.53;;
10731;SDS011;5417;42.686;23.244;2023-06-22T18:24:02;16.63;;;15.03;;
10731;SDS011;5417;42.686;23.244;2023-06-22T18:29:28;16.77;;;15.20;;
10731;SDS011;5417;42.686;23.244;2023-06-22T18:35:25;15.60;;;14.13;;
10731;SDS011;5417;42.686;23.244;2023-06-22T18:37:52;17.40;;;14.87;;
10731;SDS011;5417;42.686;23.244;2023-06-22T18:40:20;19.10;;;15.60;;
10731;SDS011;5417;42.686;23.244;2023-06-22T18:42:47;16.77;;;15.00;;
10731;SDS011;5417;42.686;23.244;2023-06-22T18:45:25;21.60;;;16.00;;
10731;SDS011;5417;42.686;23.244;2023-06-22T18:48:58;18.87;;;16.90;;
10731;SDS011;5417;42.686;23.244;2023-06-22T18:55:26;21.87;;;17.33;;
10731;SDS011;5417;42.686;23.244;2023-06-22T18:58:11;21.63;;;17.97;;
10731;SDS011;5417;42.686;23.244;2023-06-22T19:00:41;22.13;;;18.20;;
10731;SDS011;5417;42.686;23.244;2023-06-22T19:04:24;23.23;;;18.27;;
10731;SDS011;5417;42.686;23.244;2023-06-22T19:06:54;22.57;;;17.97;;
10731;SDS011;5417;42.686;23.244;2023-06-22T19:09:21;19.17;;;17.03;;
10731;SDS011;5417;42.686;23.244;2023-06-22T19:12:51;18.70;;;16.63;;
10731;SDS011;5417;42.686;23.244;2023-06-22T19:15:08;20.50;;;17.03;;
10731;SDS011;5417;42.686;23.244;2023-06-22T19:20:46;23.00;;;16.57;;
10731;SDS011;5417;42.686;23.244;2023-06-22T19:23:23;18.40;;;16.60;;
10731;SDS011;5417;42.686;23.244;2023-06-22T19:25:51;19.93;;;17.40;;
10731;SDS011;5417;42.686;23.244;2023-06-22T19:28:22;20.40;;;17.97;;
10731;SDS011;5417;42.686;23.244;2023-06-22T19:30:50;19.97;;;16.57;;
10731;SDS011;5417;42.686;23.244;2023-06-22T19:36:23;18.13;;;16.40;;
10731;SDS011;5417;42.686;23.244;2023-06-22T19:39:04;16.80;;;15.10;;
10731;SDS011;5417;42.686;23.244;2023-06-22T19:41:37;18.50;;;16.63;;
10731;SDS011;5417;42.686;23.244;2023-06-22T20:00:06;20.03;;;16.40;;
10731;SDS011;5417;42.686;23.244;2023-06-22T20:08:09;18.90;;;16.83;;
10731;SDS011;5417;42.686;23.244;2023-06-22T20:14:29;17.07;;;15.47;;
10731;SDS011;5417;42.686;23.244;2023-06-22T20:19:40;16.93;;;15.13;;
10731;SDS011;5417;42.686;23.244;2023-06-22T20:22:09;20.20;;;16.43;;
10731;SDS011;5417;42.686;23.244;2023-06-22T20:24:37;18.00;;;15.60;;
10731;SDS011;5417;42.686;23.244;2023-06-22T20:32:00;20.33;;;17.50;;
10731;SDS011;5417;42.686;23.244;2023-06-22T20:40:44;19.43;;;16.17;;
10731;SDS011;5417;42.686;23.244;2023-06-22T20:43:42;18.17;;;16.13;;
10731;SDS011;5417;42.686;23.244;2023-06-22T20:47:05;17.00;;;15.47;;
10731;SDS011;5417;42.686;23.244;2023-06-22T20:49:13;17.17;;;15.47;;
10731;SDS011;5417;42.686;23.244;2023-06-22T20:56:01;17.03;;;15.33;;
10731;SDS011;5417;42.686;23.244;2023-06-22T20:58:22;17.23;;;15.67;;
10731;SDS011;5417;42.686;23.244;2023-06-22T21:01:02;16.93;;;15.30;;
10731;SDS011;5417;42.686;23.244;2023-06-22T21:03:29;16.37;;;14.77;;
10731;SDS011;5417;42.686;23.244;2023-06-22T21:05:57;16.17;;;14.63;;
10731;SDS011;5417;42.686;23.244;2023-06-22T21:08:25;16.27;;;14.67;;
10731;SDS011;5417;42.686;23.244;2023-06-22T21:10:52;16.50;;;14.53;;
10731;SDS011;5417;42.686;23.244;2023-06-22T21:13:25;16.70;;;15.00;;
10731;SDS011;5417;42.686;23.244;2023-06-22T21:15:53;15.90;;;14.37;;
10731;SDS011;5417;42.686;23.244;2023-06-22T21:18:23;15.63;;;14.07;;
10731;SDS011;5417;42.686;23.244;2023-06-22T21:20:52;17.80;;;15.93;;
10731;SDS011;5417;42.686;23.244;2023-06-22T21:23:19;17.40;;;15.40;;
10731;SDS011;5417;42.686;23.244;2023-06-22T21:25:46;18.33;;;16.00;;
10731;SDS011;5417;42.686;23.244;2023-06-22T21:29:20;16.10;;;14.47;;
10731;SDS011;5417;42.686;23.244;2023-06-22T21:34:44;15.60;;;14.20;;
10731;SDS011;5417;42.686;23.244;2023-06-22T21:37:27;16.07;;;14.10;;
10731;SDS011;5417;42.686;23.244;2023-06-22T21:39:56;17.70;;;15.50;;
10731;SDS011;5417;42.686;23.244;2023-06-22T22:01:06;16.37;;;14.57;;
10731;SDS011;5417;42.686;23.244;2023-06-22T22:03:38;16.80;;;14.87;;
10731;SDS011;5417;42.686;23.244;2023-06-22T22:09:43;17.30;;;15.70;;
10731;SDS011;5417;42.686;23.244;2023-06-22T22:26:19;19.37;;;16.53;;
10731;SDS011;5417;42.686;23.244;2023-06-22T22:34:43;21.03;;;18.77;;
10731;SDS011;5417;42.686;23.244;2023-06-22T22:37:10;19.17;;;17.20;;
10731;SDS011;5417;42.686;23.244;2023-06-22T22:59:33;18.90;;;17.07;;
10731;SDS011;5417;42.686;23.244;2023-06-22T23:02:02;18.63;;;16.83;;
10731;SDS011;5417;42.686;23.244;2023-06-22T23:07:41;21.53;;;17.13;;
10731;SDS011;5417;42.686;23.244;2023-06-22T23:10:10;18.33;;;16.50;;
10731;SDS011;5417;42.686;23.244;2023-06-22T23:12:38;17.27;;;15.17;;